< < Back
Terminal Aerodrome Forecast


Current Version              Previous Versions:   1  2  3  4  5  6  7  8  9  

Terminal Aerodrome Forecast

013
FTUS42 KFFC 292328
TAFCSG
TAF
KCSG 292328Z 3000/3024 12005KT P6SM SKC
     FM300700 10003KT P6SM SKC
     FM301000 11003KT P6SM FEW012
     FM301300 11003KT P6SM SCT025
     FM301600 13005KT P6SM BKN035=

Latest METAR

287
SAUS70 KWBC 300954
MTRCSG
METAR KCSG 300951Z AUTO 08003KT 10SM CLR 19/17 A3012 RMK AO2 SLP195
T01940167


USA.gov is the U.S. government's official web portal to all federal, state and local government web resources and services.